createdAt,value
2018-05-06T00:01:55.670Z,2.50
2018-05-06T00:04:23.149Z,2.10
2018-05-06T00:06:50.988Z,3.20
2018-05-06T00:09:18.863Z,2.97
2018-05-06T00:11:46.361Z,2.03
2018-05-06T00:14:13.816Z,1.97
2018-05-06T00:16:41.275Z,2.43
2018-05-06T00:19:08.711Z,2.20
2018-05-06T00:21:36.185Z,2.57
2018-05-06T00:24:03.644Z,2.70
2018-05-06T00:26:31.089Z,2.60
2018-05-06T00:28:58.562Z,3.83
2018-05-06T00:31:26.077Z,2.27
2018-05-06T00:33:53.525Z,2.97
2018-05-06T00:36:21.019Z,2.93
2018-05-06T00:38:48.436Z,2.53
2018-05-06T00:41:15.935Z,3.13
2018-05-06T00:43:43.512Z,5.27
2018-05-06T00:46:10.986Z,3.20
2018-05-06T00:48:38.437Z,3.60
2018-05-06T00:51:06.105Z,2.77
2018-05-06T00:53:33.564Z,2.60
2018-05-06T00:56:01.014Z,2.30
2018-05-06T00:58:28.539Z,2.40
2018-05-06T01:00:55.976Z,2.37
2018-05-06T01:03:23.420Z,2.20
2018-05-06T01:05:50.861Z,2.20
2018-05-06T01:08:18.296Z,1.83
2018-05-06T01:10:45.768Z,3.40
2018-05-06T01:13:13.281Z,1.77
2018-05-06T01:15:40.742Z,2.20
2018-05-06T01:18:08.605Z,2.20
2018-05-06T01:20:36.035Z,2.10
2018-05-06T01:23:03.559Z,1.70
2018-05-06T01:25:31.004Z,1.87
2018-05-06T01:27:58.460Z,2.37
2018-05-06T01:30:26.210Z,1.70
2018-05-06T01:32:53.644Z,2.57
2018-05-06T01:35:21.104Z,1.90
2018-05-06T01:37:48.552Z,1.97
2018-05-06T01:40:16.055Z,2.13
2018-05-06T01:42:43.533Z,1.60
2018-05-06T01:45:10.996Z,3.30
2018-05-06T01:47:38.448Z,2.00
2018-05-06T01:50:05.911Z,1.87
2018-05-06T01:52:33.351Z,1.57
2018-05-06T01:55:00.807Z,2.77
2018-05-06T01:57:28.287Z,2.20
2018-05-06T01:59:55.753Z,3.23
2018-05-06T02:02:23.195Z,2.20
2018-05-06T02:04:50.635Z,2.73
2018-05-06T02:07:18.079Z,2.60
2018-05-06T02:09:45.525Z,2.03
2018-05-06T02:12:12.999Z,3.03
2018-05-06T02:14:40.602Z,2.50
2018-05-06T02:17:08.038Z,1.77
2018-05-06T02:19:35.535Z,2.13
2018-05-06T02:22:03.052Z,1.30
2018-05-06T02:24:31.267Z,1.77
2018-05-06T02:26:59.053Z,2.33
2018-05-06T02:29:26.524Z,1.47
2018-05-06T02:31:54.063Z,1.90
2018-05-06T02:34:21.500Z,1.43
2018-05-06T02:36:49.311Z,2.90
2018-05-06T02:39:16.743Z,2.00
2018-05-06T02:41:44.201Z,3.03
2018-05-06T02:44:11.640Z,1.87
2018-05-06T02:46:39.132Z,1.93
2018-05-06T02:49:07.025Z,2.57
2018-05-06T02:51:34.455Z,3.00
2018-05-06T02:54:02.034Z,1.77
2018-05-06T02:56:29.479Z,2.37
2018-05-06T02:58:57.286Z,1.53
2018-05-06T03:01:24.941Z,2.70
2018-05-06T03:03:52.379Z,2.40
2018-05-06T03:06:19.828Z,1.83
2018-05-06T03:08:48.222Z,2.27
2018-05-06T03:11:15.903Z,2.27
2018-05-06T03:13:43.349Z,1.77
2018-05-06T03:16:10.786Z,2.60
2018-05-06T03:18:38.616Z,3.10
2018-05-06T03:21:06.091Z,2.47
2018-05-06T03:23:33.544Z,1.87
2018-05-06T03:26:00.999Z,2.90
2018-05-06T03:28:28.476Z,1.80
2018-05-06T03:30:55.937Z,1.73
2018-05-06T03:33:23.455Z,2.07
2018-05-06T03:35:50.907Z,2.20
2018-05-06T03:38:18.343Z,2.40
2018-05-06T03:40:45.840Z,2.77
2018-05-06T03:43:13.317Z,2.47
2018-05-06T03:45:40.772Z,1.83
2018-05-06T03:48:08.216Z,1.83
2018-05-06T03:50:35.656Z,2.57
2018-05-06T03:53:03.122Z,2.40
2018-05-06T03:55:30.944Z,2.00
2018-05-06T03:58:10.162Z,2.43
2018-05-06T04:00:42.260Z,1.33
2018-05-06T04:03:09.695Z,1.73
2018-05-06T04:05:37.139Z,2.00
2018-05-06T04:08:04.571Z,2.20
2018-05-06T04:10:32.112Z,1.67
2018-05-06T04:12:59.541Z,1.43
2018-05-06T04:15:26.990Z,1.83
2018-05-06T04:17:54.503Z,1.40
2018-05-06T04:20:21.956Z,1.60
2018-05-06T04:22:49.407Z,1.70
2018-05-06T04:25:16.850Z,1.93
2018-05-06T04:27:44.284Z,1.93
2018-05-06T04:30:11.719Z,1.73
2018-05-06T04:32:39.180Z,2.17
2018-05-06T04:35:06.615Z,1.50
2018-05-06T04:37:34.076Z,1.60
2018-05-06T04:40:01.572Z,2.37
2018-05-06T04:42:29.032Z,1.57
2018-05-06T04:44:56.455Z,1.60
2018-05-06T04:47:23.915Z,1.53
2018-05-06T04:49:51.484Z,1.20
2018-05-06T04:52:18.943Z,2.10
2018-05-06T04:54:46.488Z,1.97
2018-05-06T04:57:13.911Z,1.60
2018-05-06T04:59:41.371Z,1.60
2018-05-06T05:02:08.975Z,2.50
2018-05-06T05:04:36.504Z,2.40
2018-05-06T05:07:03.947Z,1.30
2018-05-06T05:09:32.273Z,2.10
2018-05-06T05:11:59.880Z,1.47
2018-05-06T05:14:27.406Z,2.47
2018-05-06T05:16:54.862Z,1.07
2018-05-06T05:19:22.294Z,1.90
2018-05-06T05:21:49.766Z,1.40
2018-05-06T05:24:17.253Z,2.20
2018-05-06T05:31:18.998Z,1.30
2018-05-06T05:33:46.457Z,1.57
2018-05-06T05:36:13.891Z,1.87
2018-05-06T05:38:41.485Z,1.50
2018-05-06T05:41:08.927Z,1.53
2018-05-06T05:43:36.385Z,1.63
2018-05-06T05:46:03.819Z,1.50
2018-05-06T05:48:31.309Z,1.97
2018-05-06T05:50:58.786Z,1.60
2018-05-06T05:53:26.305Z,1.57
2018-05-06T05:55:53.771Z,1.67
2018-05-06T05:58:21.554Z,1.90
2018-05-06T06:00:49.000Z,1.27
2018-05-06T06:03:16.505Z,1.60
2018-05-06T06:05:43.967Z,1.60
2018-05-06T06:08:11.404Z,1.10
2018-05-06T06:10:38.836Z,1.30
2018-05-06T06:13:06.706Z,2.00
2018-05-06T06:15:34.184Z,1.77
2018-05-06T06:18:02.088Z,1.70
2018-05-06T06:20:29.532Z,1.57
2018-05-06T06:22:56.983Z,1.07
2018-05-06T06:25:24.424Z,1.40
2018-05-06T06:27:51.930Z,1.40
2018-05-06T06:30:19.368Z,1.13
2018-05-06T06:32:46.811Z,1.77
2018-05-06T06:35:14.307Z,1.40
2018-05-06T06:37:41.747Z,1.60
2018-05-06T06:40:09.323Z,1.07
2018-05-06T06:42:36.751Z,1.60
2018-05-06T06:45:04.507Z,1.20
2018-05-06T06:47:31.946Z,1.60
2018-05-06T06:49:59.591Z,1.30
2018-05-06T06:52:27.036Z,1.60
2018-05-06T06:54:54.473Z,1.27
2018-05-06T06:57:21.925Z,1.10
2018-05-06T06:59:49.367Z,1.47
2018-05-06T07:02:16.819Z,0.97
2018-05-06T07:04:44.256Z,1.33
2018-05-06T07:07:12.111Z,1.10
2018-05-06T07:09:39.598Z,1.50
2018-05-06T07:12:07.060Z,0.90
2018-05-06T07:14:34.508Z,2.10
2018-05-06T07:17:01.979Z,1.10
2018-05-06T07:19:29.423Z,1.90
2018-05-06T07:21:56.897Z,1.60
2018-05-06T07:24:24.344Z,1.27
2018-05-06T07:26:52.623Z,1.40
2018-05-06T07:29:20.088Z,1.43
2018-05-06T07:31:47.531Z,1.47
2018-05-06T07:34:14.999Z,1.53
2018-05-06T07:36:42.428Z,1.20
2018-05-06T07:39:10.251Z,1.53
2018-05-06T07:41:37.772Z,1.43
2018-05-06T07:44:05.365Z,1.63
2018-05-06T07:46:32.805Z,1.70
2018-05-06T07:49:00.274Z,1.23
2018-05-06T07:51:28.588Z,1.50
2018-05-06T07:53:56.033Z,1.23
2018-05-06T07:56:23.482Z,1.77
2018-05-06T07:58:50.971Z,1.30
2018-05-06T08:01:18.382Z,1.77
2018-05-06T08:03:46.171Z,1.30
2018-05-06T08:06:13.611Z,1.73
2018-05-06T08:08:41.056Z,1.10
2018-05-06T08:11:08.491Z,2.40
2018-05-06T08:13:35.952Z,1.40
2018-05-06T08:16:03.708Z,1.57
2018-05-06T08:18:31.185Z,1.50
2018-05-06T08:20:58.623Z,1.00
2018-05-06T08:23:26.608Z,1.17
2018-05-06T08:25:54.068Z,1.43
2018-05-06T08:28:21.502Z,1.33
2018-05-06T08:30:48.949Z,1.27
2018-05-06T08:33:16.539Z,1.47
2018-05-06T08:35:44.311Z,1.50
2018-05-06T08:38:11.750Z,1.43
2018-05-06T08:40:39.236Z,1.10
2018-05-06T08:43:06.668Z,1.50
2018-05-06T08:45:34.121Z,1.60
2018-05-06T08:48:01.625Z,1.40
2018-05-06T08:50:29.072Z,1.80
2018-05-06T08:52:56.514Z,1.50
2018-05-06T08:55:24.091Z,1.53
2018-05-06T08:57:51.553Z,1.63
2018-05-06T09:00:18.968Z,1.30
2018-05-06T09:02:46.505Z,2.03
2018-05-06T09:05:13.940Z,1.70
2018-05-06T09:07:41.372Z,1.17
2018-05-06T09:10:08.812Z,1.10
2018-05-06T09:12:36.373Z,1.00
2018-05-06T09:15:03.833Z,1.50
2018-05-06T09:17:31.259Z,1.37
2018-05-06T09:19:58.858Z,1.73
2018-05-06T09:22:26.168Z,1.43
2018-05-06T09:24:53.638Z,1.37
2018-05-06T09:27:21.425Z,1.80
2018-05-06T09:29:48.943Z,1.10
2018-05-06T09:32:16.618Z,1.47
2018-05-06T09:34:44.044Z,1.20
2018-05-06T09:37:11.492Z,1.40
2018-05-06T09:39:38.932Z,1.57
2018-05-06T09:42:06.400Z,1.40
2018-05-06T09:44:34.144Z,1.73
2018-05-06T09:47:01.916Z,1.40
2018-05-06T09:49:29.387Z,1.13
2018-05-06T09:51:56.844Z,1.50
2018-05-06T09:54:24.293Z,1.73
2018-05-06T09:56:51.718Z,1.40
2018-05-06T09:59:19.165Z,1.63
2018-05-06T10:01:46.611Z,1.77
2018-05-06T10:04:14.248Z,1.10
2018-05-06T10:06:41.703Z,1.87
2018-05-06T10:09:09.152Z,1.77
2018-05-06T10:11:36.607Z,1.87
2018-05-06T10:14:04.034Z,2.07
2018-05-06T10:16:31.488Z,1.93
2018-05-06T10:18:58.928Z,1.43
2018-05-06T10:21:26.389Z,1.17
2018-05-06T10:23:53.862Z,1.63
2018-05-06T10:26:21.317Z,1.97
2018-05-06T10:28:48.740Z,1.77
2018-05-06T10:31:16.194Z,1.60
2018-05-06T10:33:43.637Z,1.50
2018-05-06T10:36:11.083Z,1.63
2018-05-06T10:38:38.540Z,1.50
2018-05-06T10:41:06.170Z,1.50
2018-05-06T10:43:33.616Z,1.40
2018-05-06T10:46:01.060Z,1.57
2018-05-06T10:48:28.537Z,1.50
2018-05-06T10:50:55.980Z,2.20
2018-05-06T10:53:23.791Z,1.53
2018-05-06T10:55:51.249Z,1.70
2018-05-06T10:58:18.734Z,0.97
2018-05-06T11:00:46.191Z,1.30
2018-05-06T11:03:13.725Z,1.73
2018-05-06T11:05:41.182Z,2.23
2018-05-06T11:08:08.607Z,1.60
2018-05-06T11:10:36.052Z,1.47
2018-05-06T11:13:03.494Z,1.23
2018-05-06T11:15:30.941Z,1.43
2018-05-06T11:17:58.435Z,1.83
2018-05-06T11:20:25.874Z,1.67
2018-05-06T11:22:53.580Z,1.40
2018-05-06T11:25:21.925Z,1.40
2018-05-06T11:27:49.376Z,1.77
2018-05-06T11:30:16.814Z,1.40
2018-05-06T11:32:44.259Z,0.93
2018-05-06T11:35:11.902Z,1.70
2018-05-06T11:37:39.621Z,1.57
2018-05-06T11:40:07.273Z,1.20
2018-05-06T11:42:34.714Z,1.67
2018-05-06T11:45:02.473Z,1.80
2018-05-06T11:47:30.071Z,1.37
2018-05-06T11:49:57.528Z,1.30
2018-05-06T11:52:24.971Z,1.40
2018-05-06T11:54:52.406Z,1.20
2018-05-06T11:57:19.852Z,1.13
2018-05-06T11:59:47.311Z,1.10
2018-05-06T12:02:14.844Z,1.23
2018-05-06T12:04:42.209Z,1.50
2018-05-06T12:07:09.728Z,1.77
2018-05-06T12:09:37.152Z,1.10
2018-05-06T12:12:04.645Z,1.20
2018-05-06T12:14:32.148Z,1.37
2018-05-06T12:16:59.615Z,1.37
2018-05-06T12:19:27.092Z,1.00
2018-05-06T12:21:54.602Z,1.20
2018-05-06T12:24:22.048Z,1.00
2018-05-06T12:26:49.796Z,1.50
2018-05-06T12:29:17.260Z,0.90
2018-05-06T12:31:44.717Z,1.17
2018-05-06T12:34:12.164Z,1.00
2018-05-06T12:36:39.616Z,1.17
2018-05-06T12:39:07.137Z,1.00
2018-05-06T12:41:34.593Z,1.00
2018-05-06T12:44:02.051Z,1.27
2018-05-06T12:46:29.518Z,1.33
2018-05-06T12:48:56.962Z,1.10
2018-05-06T12:51:24.600Z,1.10
2018-05-06T12:53:52.292Z,1.53
2018-05-06T12:56:19.746Z,1.30
2018-05-06T12:58:47.190Z,1.50
2018-05-06T13:01:14.801Z,1.43
2018-05-06T13:03:42.254Z,1.40
2018-05-06T13:06:09.695Z,1.20
2018-05-06T13:08:37.143Z,0.80
2018-05-06T13:11:04.581Z,1.30
2018-05-06T13:13:32.145Z,1.50
2018-05-06T13:15:59.708Z,0.97
2018-05-06T13:18:27.168Z,1.00
2018-05-06T13:20:54.764Z,1.00
2018-05-06T13:23:22.215Z,1.13
2018-05-06T13:25:49.721Z,1.10
2018-05-06T13:28:17.176Z,1.07
2018-05-06T13:30:45.123Z,0.90
2018-05-06T13:33:12.687Z,0.63
2018-05-06T13:35:40.142Z,0.90
2018-05-06T13:38:07.592Z,1.30
2018-05-06T13:40:35.047Z,0.80
2018-05-06T13:43:02.483Z,1.17
2018-05-06T13:45:30.423Z,1.23
2018-05-06T13:47:57.899Z,0.80
2018-05-06T13:50:25.328Z,1.10
2018-05-06T13:52:52.778Z,1.20
2018-05-06T13:55:20.233Z,1.10
2018-05-06T13:57:47.682Z,1.73
2018-05-06T14:00:15.115Z,0.63
2018-05-06T14:02:42.618Z,1.10
2018-05-06T14:05:10.000Z,1.00
2018-05-06T14:07:37.437Z,0.70
2018-05-06T14:10:04.884Z,1.27
2018-05-06T14:12:32.488Z,0.80
2018-05-06T14:14:59.944Z,1.30
2018-05-06T14:17:27.407Z,1.13
2018-05-06T14:19:54.880Z,0.90
2018-05-06T14:22:22.353Z,1.00
2018-05-06T14:24:49.822Z,0.90
2018-05-06T14:27:17.475Z,1.03
2018-05-06T14:29:44.933Z,1.00
2018-05-06T14:32:12.396Z,0.93
2018-05-06T14:34:40.056Z,0.93
2018-05-06T14:37:07.586Z,0.80
2018-05-06T14:39:35.029Z,0.80
2018-05-06T14:42:03.233Z,1.10
2018-05-06T14:44:30.671Z,1.40
2018-05-06T14:47:24.575Z,1.03
2018-05-06T14:49:52.008Z,0.70
2018-05-06T14:52:20.240Z,1.00
2018-05-06T14:54:47.677Z,0.93
2018-05-06T14:57:15.114Z,0.70
2018-05-06T14:59:42.567Z,0.90
2018-05-06T15:02:10.016Z,0.60
2018-05-06T15:04:37.536Z,0.80
2018-05-06T15:07:04.976Z,0.60
2018-05-06T15:09:32.426Z,0.80
2018-05-06T15:11:59.864Z,0.73
2018-05-06T15:14:36.070Z,0.80
2018-05-06T15:17:03.545Z,0.93
2018-05-06T15:19:31.010Z,0.80
2018-05-06T15:21:58.455Z,0.90
2018-05-06T15:24:25.925Z,1.10
2018-05-06T15:26:53.629Z,0.90
2018-05-06T15:29:21.072Z,0.90
2018-05-06T15:31:48.535Z,1.30
2018-05-06T15:34:15.972Z,0.87
2018-05-06T15:36:43.420Z,1.00
2018-05-06T15:39:10.859Z,1.10
2018-05-06T15:41:39.091Z,0.80
2018-05-06T15:44:06.537Z,1.10
2018-05-06T15:46:33.976Z,0.80
2018-05-06T15:49:02.355Z,0.90
2018-05-06T15:51:29.949Z,1.17
2018-05-06T15:53:57.404Z,1.20
2018-05-06T15:56:24.842Z,1.00
2018-05-06T15:58:52.332Z,1.43
2018-05-06T16:01:19.788Z,1.83
2018-05-06T16:03:59.004Z,0.90
2018-05-06T16:06:26.539Z,1.00
2018-05-06T16:08:53.996Z,1.00
2018-05-06T16:11:21.458Z,1.23
2018-05-06T16:13:48.891Z,1.17
2018-05-06T16:16:16.340Z,1.50
2018-05-06T16:18:43.783Z,1.10
2018-05-06T16:21:11.237Z,0.90
2018-05-06T16:23:39.441Z,1.10
2018-05-06T16:26:06.887Z,1.20
2018-05-06T16:28:34.327Z,0.73
2018-05-06T16:31:01.959Z,0.80
2018-05-06T16:33:29.431Z,0.93
2018-05-06T16:35:56.955Z,0.83
2018-05-06T16:38:24.417Z,1.00
2018-05-06T16:40:51.841Z,1.00
2018-05-06T16:43:19.351Z,1.10
2018-05-06T16:45:46.877Z,0.90
2018-05-06T16:48:14.268Z,1.10
2018-05-06T16:50:41.943Z,1.67
2018-05-06T16:53:09.927Z,1.20
2018-05-06T16:55:37.373Z,0.83
2018-05-06T16:58:04.807Z,0.97
2018-05-06T17:00:32.312Z,1.20
2018-05-06T17:02:59.804Z,1.23
2018-05-06T17:05:27.262Z,1.07
2018-05-06T17:07:54.700Z,0.83
2018-05-06T17:10:22.157Z,0.83
2018-05-06T17:12:49.745Z,1.03
2018-05-06T17:15:17.106Z,1.40
2018-05-06T17:17:44.541Z,1.00
2018-05-06T17:20:12.386Z,1.00
2018-05-06T17:22:39.836Z,1.13
2018-05-06T17:25:07.343Z,1.10
2018-05-06T17:27:34.783Z,1.17
2018-05-06T17:30:02.240Z,0.93
2018-05-06T17:32:29.735Z,0.90
2018-05-06T17:34:57.176Z,1.53
2018-05-06T17:37:24.607Z,1.30
2018-05-06T17:39:52.055Z,1.00
2018-05-06T17:42:19.571Z,1.30
2018-05-06T17:44:47.318Z,2.20
2018-05-06T17:47:14.767Z,0.80
2018-05-06T17:49:42.241Z,0.90
2018-05-06T17:52:09.656Z,1.23
2018-05-06T17:54:37.868Z,1.00
2018-05-06T17:57:05.304Z,0.70
2018-05-06T17:59:33.509Z,1.73
2018-05-06T18:02:00.975Z,1.50
2018-05-06T18:04:28.532Z,1.23
2018-05-06T18:06:55.970Z,1.10
2018-05-06T18:09:24.184Z,1.07
2018-05-06T18:11:51.632Z,1.37
2018-05-06T18:14:19.225Z,1.13
2018-05-06T18:16:46.675Z,1.10
2018-05-06T18:19:14.356Z,1.50
2018-05-06T18:21:41.807Z,1.33
2018-05-06T18:24:09.287Z,1.30
2018-05-06T18:26:37.119Z,1.70
2018-05-06T18:29:04.702Z,1.20
2018-05-06T18:31:32.145Z,1.53
2018-05-06T18:34:00.342Z,1.47
2018-05-06T18:36:27.831Z,1.53
2018-05-06T18:38:55.368Z,1.00
2018-05-06T18:41:22.824Z,1.10
2018-05-06T18:43:50.256Z,1.10
2018-05-06T18:46:17.703Z,1.33
2018-05-06T18:48:45.163Z,0.93
2018-05-06T18:51:12.987Z,1.27
2018-05-06T18:53:40.425Z,0.87
2018-05-06T18:56:07.883Z,1.40
2018-05-06T18:58:35.312Z,1.30
2018-05-06T19:01:03.531Z,1.00
2018-05-06T19:03:31.211Z,0.90
2018-05-06T19:05:58.647Z,1.60
2018-05-06T19:08:26.102Z,1.20
2018-05-06T19:10:53.546Z,1.57
2018-05-06T19:13:20.988Z,1.00
2018-05-06T19:15:48.433Z,1.20
2018-05-06T19:18:15.986Z,1.50
2018-05-06T19:20:43.446Z,1.47
2018-05-06T19:23:10.919Z,1.33
2018-05-06T19:25:38.579Z,1.70
2018-05-06T19:28:06.177Z,1.50
2018-05-06T19:30:39.004Z,1.07
2018-05-06T19:33:06.689Z,1.60
2018-05-06T19:35:34.131Z,1.70
2018-05-06T19:38:01.572Z,1.10
2018-05-06T19:40:29.030Z,1.13
2018-05-06T19:42:56.478Z,1.00
2018-05-06T19:45:23.936Z,1.40
2018-05-06T19:47:51.387Z,0.90
2018-05-06T19:50:18.835Z,1.43
2018-05-06T19:52:46.283Z,1.10
2018-05-06T19:55:14.169Z,1.30
2018-05-06T19:57:42.047Z,1.60
2018-05-06T20:00:09.585Z,1.80
2018-05-06T20:02:37.060Z,1.00
2018-05-06T20:05:04.479Z,1.10
2018-05-06T20:07:31.925Z,0.93
2018-05-06T20:09:59.375Z,1.30
2018-05-06T20:12:26.808Z,1.20
2018-05-06T20:14:54.256Z,0.90
2018-05-06T20:17:21.699Z,1.10
2018-05-06T20:19:49.215Z,1.83
2018-05-06T20:22:16.673Z,1.50
2018-05-06T20:24:44.133Z,1.40
2018-05-06T20:27:11.582Z,1.20
2018-05-06T20:29:39.120Z,1.07
2018-05-06T20:32:06.586Z,1.30
2018-05-06T20:34:34.383Z,1.47
2018-05-06T20:37:01.836Z,1.27
2018-05-06T20:39:29.278Z,1.13
2018-05-06T20:41:56.720Z,1.50
2018-05-06T20:44:24.627Z,1.00
2018-05-06T20:46:52.093Z,1.40
2018-05-06T20:49:19.974Z,1.03
2018-05-06T20:51:47.418Z,1.50
2018-05-06T20:54:14.986Z,1.40
2018-05-06T20:56:42.420Z,1.30
2018-05-06T20:59:09.892Z,1.10
2018-05-06T21:01:37.698Z,0.97
2018-05-06T21:04:05.132Z,1.00
2018-05-06T21:06:32.596Z,1.60
2018-05-06T21:09:00.146Z,1.10
2018-05-06T21:11:27.596Z,1.17
2018-05-06T21:13:55.050Z,2.03
2018-05-06T21:16:22.545Z,1.53
2018-05-06T21:18:50.001Z,1.33
2018-05-06T21:21:17.805Z,1.30
2018-05-06T21:23:45.281Z,1.33
2018-05-06T21:26:12.792Z,1.30
2018-05-06T21:28:40.246Z,0.97
2018-05-06T21:31:07.691Z,1.27
2018-05-06T21:33:35.159Z,1.90
2018-05-06T21:36:02.645Z,1.10
2018-05-06T21:38:30.107Z,1.50
2018-05-06T21:40:57.557Z,1.10
2018-05-06T21:43:25.050Z,1.00
2018-05-06T21:45:52.804Z,1.13
2018-05-06T21:48:20.275Z,1.20
2018-05-06T21:50:47.920Z,1.43
2018-05-06T21:53:15.284Z,1.10
2018-05-06T21:55:42.737Z,1.10
2018-05-06T21:58:10.263Z,1.33
2018-05-06T22:00:37.683Z,1.00
2018-05-06T22:03:05.452Z,1.73
2018-05-06T22:05:33.408Z,1.50
2018-05-06T22:08:00.844Z,1.20
2018-05-06T22:10:28.275Z,1.07
2018-05-06T22:12:55.724Z,1.40
2018-05-06T22:15:23.242Z,1.50
2018-05-06T22:17:50.726Z,0.80
2018-05-06T22:20:18.506Z,1.63
2018-05-06T22:22:46.017Z,1.30
2018-05-06T22:25:13.469Z,1.00
2018-05-06T22:27:40.892Z,1.40
2018-05-06T22:30:08.352Z,1.40
2018-05-06T22:32:35.804Z,1.20
2018-05-06T22:35:03.292Z,1.70
2018-05-06T22:37:30.746Z,1.37
2018-05-06T22:39:58.391Z,1.60
2018-05-06T22:42:25.823Z,0.70
2018-05-06T22:44:53.276Z,1.43
2018-05-06T22:47:21.488Z,1.80
2018-05-06T22:49:48.943Z,1.10
2018-05-06T22:52:16.386Z,1.43
2018-05-06T22:54:43.824Z,1.20
2018-05-06T22:57:11.270Z,1.30
2018-05-06T22:59:38.723Z,1.33
2018-05-06T23:02:06.183Z,1.20
2018-05-06T23:04:33.714Z,1.20
2018-05-06T23:07:01.172Z,1.83
2018-05-06T23:09:28.604Z,1.20
2018-05-06T23:11:56.421Z,1.57
2018-05-06T23:14:23.915Z,1.40
2018-05-06T23:16:51.435Z,2.03
2018-05-06T23:19:18.878Z,1.90
2018-05-06T23:21:46.349Z,2.03
2018-05-06T23:24:13.823Z,1.20
2018-05-06T23:26:41.267Z,1.40
2018-05-06T23:29:08.752Z,1.50
2018-05-06T23:31:36.215Z,1.50
2018-05-06T23:34:04.007Z,1.27
2018-05-06T23:36:31.490Z,1.37
2018-05-06T23:38:58.916Z,1.00
2018-05-06T23:41:26.386Z,1.03
2018-05-06T23:43:53.843Z,1.20
2018-05-06T23:46:21.307Z,1.43
2018-05-06T23:48:48.840Z,1.30
2018-05-06T23:51:16.289Z,1.20
2018-05-06T23:53:44.078Z,1.50
2018-05-06T23:56:11.511Z,1.50
2018-05-06T23:58:39.011Z,1.13
